Latest Weather Observations for Cape Ferguson

IDQ60801

Issued at 12:02 am EST Thursday 29 January 2015 (issued every 30 minutes, with the page automatically refreshed every 10 minutes)

About weather observations | Map of weather stations | Latest weather observations for QLD | Other Formats
Station Details ID: 032182 Name: CAPE FERGUSON NTC AWS Lat: -19.28 Lon: 147.06 Height: 0.0 m
Data from the previous 72 hours. | See also: Recent months for locations in Queensland
Date/Time
EST
Temp
°C
App
Temp
°C
Dew
Point
Rel
Hum
%
Delta-T
°C
Wind Press
QNH
hPa
Press
MSL
hPa
Rain
since 9 am
mm
Dir
 
Spd
km/h
Gust
km/h
Spd
kts
Gust
kts
28/11:30pm 29.6 - - - - N 2 6 1 3 1001.7 1001.7 -
28/11:00pm 29.8 - - - - N 7 13 4 7 1001.9 1001.9 -
28/10:30pm 29.9 - - - - NNW 4 11 2 6 1001.9 1001.9 -
28/10:00pm 29.8 - - - - NNE 6 9 3 5 1001.8 1001.8 -
28/09:30pm 29.5 - - - - N 7 11 4 6 1001.5 1001.5 -
28/09:00pm 29.6 - - - - NW 6 13 3 7 1001.2 1001.2 -
28/08:30pm 29.7 - - - - NNW 4 9 2 5 1000.8 1000.8 -
28/08:00pm 30.1 - - - - N 9 15 5 8 1000.6 1000.6 -
28/07:30pm 29.9 - - - - N 9 15 5 8 1000.3 1000.3 -
28/07:00pm 29.9 - - - - N 11 20 6 11 1000.1 1000.1 -
28/06:30pm 30.3 - - - - WNW 6 19 3 10 999.6 999.6 -
28/06:00pm 30.5 - - - - NNE 7 22 4 12 999.0 999.0 -
28/05:30pm 30.4 - - - - NE 15 24 8 13 998.7 998.7 -
28/05:00pm 30.3 - - - - NE 15 24 8 13 998.6 998.6 -
28/04:30pm 30.8 - - - - NE 13 26 7 14 998.4 998.4 -
28/04:00pm 30.4 - - - - NE 15 26 8 14 998.4 998.4 -
28/03:30pm 30.7 - - - - NE 13 26 7 14 998.8 998.8 -
28/03:00pm 30.2 - - - - NE 19 28 10 15 998.8 998.8 -
28/02:30pm 30.1 - - - - NE 17 26 9 14 999.0 999.0 -
28/02:00pm 30.4 - - - - NE 19 28 10 15 999.5 999.5 -
28/01:30pm 30.3 - - - - NE 17 28 9 15 999.7 999.7 -
28/01:00pm 30.3 - - - - NE 17 26 9 14 1000.1 1000.1 -
28/12:30pm 30.6 - - - - NE 13 26 7 14 1000.4 1000.4 -
28/12:00pm 30.3 - - - - ENE 15 32 8 17 1000.6 1000.6 -
28/11:30am 30.5 - - - - NNE 9 24 5 13 1000.8 1000.8 -
28/11:00am 30.4 - - - - ENE 13 22 7 12 1000.9 1000.9 -
28/10:30am 30.5 - - - - ENE 11 28 6 15 1001.1 1001.1 -
28/10:00am 30.3 - - - - NE 11 22 6 12 1001.1 1001.1 -
28/09:30am 30.1 - - - - ENE 7 13 4 7 1001.4 1001.4 -
28/09:00am 30.2 - - - - E 7 11 4 6 1001.4 1001.4 -
28/08:30am 30.2 - - - - E 7 15 4 8 1001.4 1001.4 -
28/08:00am 29.8 - - - - W 6 9 3 5 1001.2 1001.2 -
28/07:30am 29.8 - - - - NNE 6 13 3 7 1000.9 1000.9 -
28/07:00am 29.3 - - - - NW 6 9 3 5 1000.8 1000.8 -
28/06:30am 28.5 - - - - N 2 6 1 3 1000.5 1000.5 -
28/06:00am 28.6 - - - - NE 4 9 2 5 1000.3 1000.3 -
28/05:30am 28.1 - - - - CALM 0 4 0 2 1000.0 1000.0 -
28/05:00am 27.9 - - - - WNW 2 4 1 2 999.9 999.9 -
28/04:30am 27.9 - - - - NW 4 9 2 5 999.7 999.7 -
28/04:00am 28.1 - - - - NNW 2 4 1 2 999.8 999.8 -
28/03:30am 27.8 - - - - WNW 4 7 2 4 999.8 999.8 -
28/03:00am 28.5 - - - - WNW 2 6 1 3 999.9 999.9 -
28/02:30am 29.0 - - - - ENE 2 6 1 3 999.7 999.7 -
28/02:00am 29.0 - - - - NNW 6 9 3 5 999.9 999.9 -
28/01:30am 29.1 - - - - WNW 6 19 3 10 1000.8 1000.8 -
28/01:00am 29.2 - - - - NNW 4 11 2 6 1001.4 1001.4 -
28/12:30am 29.3 - - - - NW 9 19 5 10 1001.4 1001.4 -
28/12:00am 29.4 - - - - WNW 6 13 3 7 1001.8 1001.8 -
 
Date/Time
EST
Temp
°C
App
Temp
°C
Dew
Point
Rel
Hum
%
Delta-T
°C
Wind Press
QNH
hPa
Press
MSL
hPa
Rain
since 9 am
mm
Dir
 
Spd
km/h
Gust
km/h
Spd
kts
Gust
kts
27/11:30pm 29.6 - - - - WNW 4 11 2 6 1002.3 1002.3 -
27/11:00pm 29.7 - - - - ESE 4 9 2 5 1002.3 1002.3 -
27/10:30pm 29.8 - - - - W 4 9 2 5 1002.6 1002.6 -
27/10:00pm 30.0 - - - - NE 4 13 2 7 1002.5 1002.5 -
27/09:30pm 30.0 - - - - ENE 7 13 4 7 1002.3 1002.3 -
27/09:00pm 30.1 - - - - ENE 6 13 3 7 1002.0 1002.0 -
27/08:30pm 30.2 - - - - ENE 7 17 4 9 1002.0 1002.0 -
27/08:00pm 30.3 - - - - ENE 11 17 6 9 1001.7 1001.7 -
27/07:30pm 30.4 - - - - ENE 17 20 9 11 1001.5 1001.5 -
27/07:00pm 30.7 - - - - ENE 17 20 9 11 1001.0 1001.0 -
27/06:30pm 30.8 - - - - ENE 19 22 10 12 1000.2 1000.2 -
27/06:00pm 31.0 - - - - ENE 13 22 7 12 999.7 999.7 -
27/05:30pm - - - - - ENE 15 22 8 12 999.5 999.5 -
27/05:00pm 31.3 - - - - NNE 13 20 7 11 998.8 998.8 -
27/04:30pm 31.3 - - - - NE 13 24 7 13 998.9 998.9 -
27/04:00pm 31.4 - - - - NE 15 24 8 13 999.2 999.2 -
27/03:30pm 31.8 - - - - NE 11 24 6 13 999.2 999.2 -
27/03:00pm 31.6 - - - - NE 13 20 7 11 999.6 999.6 -
27/02:30pm 31.3 - - - - NNE 15 22 8 12 1000.0 1000.0 -
27/02:00pm 31.4 - - - - NE 13 22 7 12 1000.2 1000.2 -
27/01:30pm 31.1 - - - - NNE 15 20 8 11 1000.7 1000.7 -
27/01:00pm 31.3 - - - - NE 11 19 6 10 1001.2 1001.2 -
27/12:30pm 31.0 - - - - ENE 13 17 7 9 1001.4 1001.4 -
27/12:00pm 30.3 - - - - E 13 15 7 8 1001.8 1001.8 -
27/11:30am 30.1 - - - - E 17 19 9 10 1002.2 1002.2 -
27/11:00am 29.8 - - - - ENE 15 19 8 10 1002.5 1002.5 -
27/10:30am 29.8 - - - - ENE 13 17 7 9 1002.4 1002.4 -
27/10:00am 32.1 - - - - SSW 4 9 2 5 1002.4 1002.4 -
27/09:30am 31.9 - - - - WSW 13 20 7 11 1002.5 1002.5 -
27/09:00am 31.0 - - - - W 9 13 5 7 1002.5 1002.5 -
27/08:30am 30.7 - - - - WSW 15 20 8 11 1002.6 1002.6 -
27/08:00am 30.3 - - - - WSW 13 20 7 11 1002.5 1002.5 -
27/07:30am 29.1 - - - - S 11 17 6 9 1002.4 1002.4 -
27/07:00am 29.6 - - - - SW 15 17 8 9 1002.2 1002.2 -
27/06:30am 29.6 - - - - W 13 19 7 10 1002.1 1002.1 -
27/06:00am 29.2 - - - - WNW 13 17 7 9 1001.9 1001.9 -
27/05:30am 28.1 - - - - WNW 4 11 2 6 1001.7 1001.7 -
27/05:00am 28.4 - - - - W 2 6 1 3 1001.5 1001.5 -
27/04:30am 28.5 - - - - WNW 4 7 2 4 1001.5 1001.5 -
27/04:00am 28.3 - - - - NW 4 6 2 3 1001.7 1001.7 -
27/03:30am 28.6 - - - - WSW 6 9 3 5 1001.8 1001.8 -
27/03:00am 28.8 - - - - SW 2 6 1 3 1001.9 1001.9 -
27/02:30am 28.8 - - - - SSW 9 13 5 7 1001.8 1001.8 -
27/02:00am 29.7 - - - - SSE 7 11 4 6 1001.7 1001.7 -
27/01:30am 29.7 - - - - NE 6 17 3 9 1002.3 1002.3 -
27/01:00am 29.4 - - - - W 2 6 1 3 1002.7 1002.7 -
27/12:30am 29.6 - - - - WSW 7 17 4 9 1003.2 1003.2 -
27/12:00am 29.5 - - - - NE 2 4 1 2 1003.8 1003.8 -
 
Date/Time
EST
Temp
°C
App
Temp
°C
Dew
Point
Rel
Hum
%
Delta-T
°C
Wind Press
QNH
hPa
Press
MSL
hPa
Rain
since 9 am
mm
Dir
 
Spd
km/h
Gust
km/h
Spd
kts
Gust
kts
26/11:30pm 29.1 - - - - WNW 4 6 2 3 1003.9 1003.9 -
26/11:00pm 29.9 - - - - ENE 6 7 3 4 1004.1 1004.1 -
26/10:30pm 29.5 - - - - CALM 0 2 0 1 1003.9 1003.9 -
26/10:00pm 29.4 - - - - NE 4 7 2 4 1003.7 1003.7 -
26/09:30pm 29.3 - - - - WNW 7 9 4 5 1003.4 1003.4 -
26/09:00pm 29.5 - - - - ENE 4 6 2 3 1003.5 1003.5 -
26/08:30pm 29.5 - - - - N 6 9 3 5 1003.4 1003.4 -
26/08:00pm 29.7 - - - - NNE 11 19 6 10 1003.0 1003.0 -
26/07:30pm 29.6 - - - - NNE 11 15 6 8 1002.5 1002.5 -
26/07:00pm 29.7 - - - - NNE 11 19 6 10 1002.1 1002.1 -
26/06:30pm 29.8 - - - - NNE 9 22 5 12 1002.0 1002.0 -
26/06:00pm 30.0 - - - - NE 11 22 6 12 1001.8 1001.8 -
26/05:30pm 30.6 - - - - NNE 11 22 6 12 1001.5 1001.5 -
26/05:00pm 30.3 - - - - NNE 9 19 5 10 1001.4 1001.4 -
26/04:30pm 30.4 - - - - NE 11 19 6 10 1001.5 1001.5 -
26/04:00pm 30.6 - - - - NE 11 19 6 10 1001.8 1001.8 -
26/03:30pm 30.6 - - - - NE 13 22 7 12 1002.2 1002.2 -
26/03:00pm 30.4 - - - - NNE 13 20 7 11 1002.9 1002.9 -
26/02:30pm 30.6 - - - - NE 9 17 5 9 1003.2 1003.2 -
26/02:00pm 30.7 - - - - NE 9 20 5 11 1003.4 1003.4 -
26/01:30pm 30.5 - - - - NNE 13 19 7 10 1003.7 1003.7 -
26/01:00pm 30.6 - - - - NE 11 17 6 9 1004.1 1004.1 -
26/12:30pm 30.4 - - - - ENE 6 13 3 7 1004.3 1004.3 -
26/12:00pm 30.8 - - - - CALM 0 2 0 1 1004.6 1004.6 -
26/11:30am 30.1 - - - - W 6 13 3 7 1005.1 1005.1 -
26/11:00am 29.7 - - - - W 11 19 6 10 1005.4 1005.4 -
26/10:30am 29.3 - - - - WNW 13 24 7 13 1005.5 1005.5 -
26/10:00am 28.9 - - - - WNW 19 26 10 14 1005.5 1005.5 -
26/09:30am 28.4 - - - - WSW 13 17 7 9 1005.4 1005.4 -
26/09:00am 27.9 - - - - W 13 19 7 10 1005.3 1005.3 -
26/08:30am 27.1 - - - - W 19 24 10 13 1005.3 1005.3 -
26/08:00am 27.5 - - - - W 15 22 8 12 1005.3 1005.3 -
26/07:30am 27.2 - - - - SSW 6 20 3 11 1005.3 1005.3 -
26/07:00am 26.6 - - - - WNW 7 11 4 6 1005.4 1005.4 -
26/06:30am 27.0 - - - - NNW 4 7 2 4 1005.0 1005.0 -
26/06:00am 27.2 - - - - NW 4 9 2 5 1004.7 1004.7 -
26/05:30am 26.8 - - - - NW 4 6 2 3 1004.9 1004.9 -
26/05:00am 27.0 - - - - SSW 4 7 2 4 1005.3 1005.3 -
26/04:30am 26.9 - - - - SW 11 15 6 8 1005.4 1005.4 -
26/04:00am 27.7 - - - - W 20 24 11 13 1005.3 1005.3 -
26/03:30am 27.3 - - - - WSW 22 28 12 15 1005.2 1005.2 -
26/03:00am 26.9 - - - - WSW 26 32 14 17 1005.2 1005.2 -
26/02:30am 26.9 - - - - WSW 20 26 11 14 1005.3 1005.3 -
26/02:00am 26.7 - - - - W 26 39 14 21 1005.7 1005.7 -
26/01:30am 26.9 - - - - WSW 22 32 12 17 1006.1 1006.1 -
26/01:00am 26.8 - - - - SW 13 22 7 12 1006.8 1006.8 -
26/12:30am 27.2 - - - - WSW 13 15 7 8 1007.2 1007.2 -

Other Formats:

Comma delimited format used in spreadsheet applications
http://www.bom.gov.au/fwo/IDQ60801/IDQ60801.94297.axf

JavaScript Object Notation format (JSON) in row-major order
http://www.bom.gov.au/fwo/IDQ60801/IDQ60801.94297.json